Time;durP1;ratioP1;P1;durP2;ratioP2;P2;SDS_P1;SDS_P2;PMS_P1;PMS_P2;Temp;Humidity;BMP_temperature;BMP_pressure;BME280_temperature;BME280_humidity;BME280_pressure;Samples;Min_cycle;Max_cycle;Signal;HPM_P1;HPM_P2
2023/08/07 00:01:49;;;;;;;2.97;2.78;;;;;;;;;;5078055;28;20024;-28
2023/08/07 00:04:15;;;;;;;3.25;3.05;;;;;;;;;;5078208;28;20024;-25
2023/08/07 00:06:41;;;;;;;3.03;2.83;;;;;;;;;;5077957;28;20341;-25
2023/08/07 00:09:07;;;;;;;3.40;3.20;;;;;;;;;;5078174;28;20028;-29
2023/08/07 00:11:33;;;;;;;3.03;2.83;;;;;;;;;;5077735;28;20161;-27
2023/08/07 00:14:00;;;;;;;3.25;3.03;;;;;;;;;;5077794;28;20086;-25
2023/08/07 00:16:26;;;;;;;2.78;2.58;;;;;;;;;;5078002;28;20069;-27
2023/08/07 00:18:55;;;;;;;2.50;2.40;;;;;;;;;;5078016;28;20016;-28
2023/08/07 00:21:22;;;;;;;2.90;2.80;;;;;;;;;;5077579;28;20420;-28
2023/08/07 00:23:49;;;;;;;2.97;2.78;;;;;;;;;;5077793;28;20024;-29
2023/08/07 00:26:15;;;;;;;2.88;2.78;;;;;;;;;;5077522;28;20024;-24
2023/08/07 00:28:42;;;;;;;3.50;3.30;;;;;;;;;;5077485;28;20024;-30
2023/08/07 00:31:08;;;;;;;3.13;2.92;;;;;;;;;;5077675;28;20040;-25
2023/08/07 00:33:34;;;;;;;3.00;2.80;;;;;;;;;;5077479;28;20063;-25
2023/08/07 00:36:00;;;;;;;3.15;2.95;;;;;;;;;;5077449;28;20086;-26
2023/08/07 00:38:26;;;;;;;3.28;3.08;;;;;;;;;;5077426;28;20459;-24
2023/08/07 00:40:52;;;;;;;2.83;2.63;;;;;;;;;;5077247;28;20041;-26
2023/08/07 00:43:18;;;;;;;3.40;3.20;;;;;;;;;;5077213;28;20028;-24
2023/08/07 00:45:47;;;;;;;3.33;3.13;;;;;;;;;;5076506;28;20021;-24
2023/08/07 00:48:13;;;;;;;3.08;2.88;;;;;;;;;;5077491;28;20436;-26
2023/08/07 00:50:43;;;;;;;2.60;2.50;;;;;;;;;;5077248;28;20055;-26
2023/08/07 00:53:09;;;;;;;3.00;2.80;;;;;;;;;;5078162;28;20032;-27
2023/08/07 00:55:36;;;;;;;3.30;3.10;;;;;;;;;;5077372;28;20028;-29
2023/08/07 00:58:02;;;;;;;3.00;2.88;;;;;;;;;;5077042;28;20028;-24
2023/08/07 01:00:30;;;;;;;2.80;2.70;;;;;;;;;;5076932;28;20028;-25
2023/08/07 01:02:56;;;;;;;2.65;2.53;;;;;;;;;;5077128;28;20071;-26
2023/08/07 01:05:23;;;;;;;2.83;2.72;;;;;;;;;;5076852;28;20025;-25
2023/08/07 01:07:54;;;;;;;2.67;2.58;;;;;;;;;;5076847;28;20027;-25
2023/08/07 01:10:21;;;;;;;2.97;2.78;;;;;;;;;;5077042;28;20017;-24
2023/08/07 01:12:56;;;;;;;3.20;3.00;;;;;;;;;;5076721;28;20020;-24
2023/08/07 01:15:26;;;;;;;3.05;2.85;;;;;;;;;;5077034;28;20352;-24
2023/08/07 01:17:53;;;;;;;3.05;2.85;;;;;;;;;;5059025;28;20024;-30
2023/08/07 01:20:19;;;;;;;3.13;2.92;;;;;;;;;;5076547;28;20336;-24
2023/08/07 01:22:45;;;;;;;2.95;2.75;;;;;;;;;;5076510;28;20082;-28
2023/08/07 01:25:12;;;;;;;3.13;2.92;;;;;;;;;;5076552;28;20078;-25
2023/08/07 01:27:44;;;;;;;3.40;3.20;;;;;;;;;;5076384;28;20028;-25
2023/08/07 01:30:27;;;;;;;3.33;3.03;;;;;;;;;;5076296;28;20052;-24
2023/08/07 01:32:56;;;;;;;3.20;3.00;;;;;;;;;;5076673;28;20090;-24
2023/08/07 01:35:26;;;;;;;3.42;3.22;;;;;;;;;;5076380;28;20028;-24
2023/08/07 01:37:54;;;;;;;3.20;3.00;;;;;;;;;;5076608;28;20049;-27
2023/08/07 01:40:21;;;;;;;3.78;3.58;;;;;;;;;;5075941;28;20048;-30
2023/08/07 01:42:48;;;;;;;3.28;3.08;;;;;;;;;;5076102;28;20112;-31
2023/08/07 01:45:14;;;;;;;3.42;3.22;;;;;;;;;;5076092;28;20024;-25
2023/08/07 01:47:40;;;;;;;3.42;3.22;;;;;;;;;;5076335;28;20089;-25
2023/08/07 01:50:06;;;;;;;3.20;3.00;;;;;;;;;;5075936;28;20059;-31
2023/08/07 01:52:33;;;;;;;3.55;3.35;;;;;;;;;;5075953;28;20035;-28
2023/08/07 01:54:59;;;;;;;3.40;3.20;;;;;;;;;;5075867;28;20035;-26
2023/08/07 01:57:25;;;;;;;2.85;2.55;;;;;;;;;;5076082;28;20074;-26
2023/08/07 01:59:52;;;;;;;3.60;3.40;;;;;;;;;;5058080;28;20529;-27
2023/08/07 02:02:18;;;;;;;3.03;2.83;;;;;;;;;;5075673;28;20036;-27
2023/08/07 02:04:44;;;;;;;3.42;3.22;;;;;;;;;;5076034;28;20439;-27
2023/08/07 02:07:10;;;;;;;3.10;2.90;;;;;;;;;;5075688;28;20352;-27
2023/08/07 02:09:37;;;;;;;3.42;3.22;;;;;;;;;;5075549;28;20051;-24
2023/08/07 02:12:03;;;;;;;5.03;3.42;;;;;;;;;;5075808;28;20059;-28
2023/08/07 02:14:29;;;;;;;3.40;3.00;;;;;;;;;;5075792;28;20059;-25
2023/08/07 02:16:55;;;;;;;3.33;3.13;;;;;;;;;;5075478;28;20043;-24
2023/08/07 02:19:21;;;;;;;2.90;2.70;;;;;;;;;;5075725;28;20025;-25
2023/08/07 02:21:47;;;;;;;2.78;2.67;;;;;;;;;;5075284;28;20028;-24
2023/08/07 02:24:13;;;;;;;3.38;3.17;;;;;;;;;;5075261;28;20064;-24
2023/08/07 02:26:39;;;;;;;3.20;3.00;;;;;;;;;;5075619;28;20029;-24
2023/08/07 02:29:08;;;;;;;3.08;2.88;;;;;;;;;;5075292;28;20356;-26
2023/08/07 02:31:35;;;;;;;3.65;3.33;;;;;;;;;;5075150;28;20431;-26
2023/08/07 02:34:01;;;;;;;2.83;2.63;;;;;;;;;;5075113;28;20071;-24
2023/08/07 02:36:27;;;;;;;2.70;2.50;;;;;;;;;;5075385;28;20028;-24
2023/08/07 02:38:53;;;;;;;3.40;3.20;;;;;;;;;;5075328;28;20031;-25
2023/08/07 02:41:19;;;;;;;3.25;3.05;;;;;;;;;;5074769;28;20055;-28
2023/08/07 02:43:45;;;;;;;2.90;2.70;;;;;;;;;;5075222;28;20032;-29
2023/08/07 02:46:11;;;;;;;3.50;3.30;;;;;;;;;;5075255;28;20028;-24
2023/08/07 02:48:39;;;;;;;3.35;3.15;;;;;;;;;;5074918;28;20033;-24
2023/08/07 02:51:05;;;;;;;3.65;3.35;;;;;;;;;;5075092;28;20028;-24
2023/08/07 02:53:31;;;;;;;2.65;2.55;;;;;;;;;;5075165;28;20107;-23
2023/08/07 02:55:57;;;;;;;3.00;2.80;;;;;;;;;;5075152;28;20089;-25
2023/08/07 02:58:24;;;;;;;3.35;3.15;;;;;;;;;;5075101;28;20024;-25
2023/08/07 03:00:50;;;;;;;3.00;2.80;;;;;;;;;;5074685;28;20028;-25
2023/08/07 03:03:16;;;;;;;3.03;2.80;;;;;;;;;;5074715;28;20090;-25
2023/08/07 03:05:49;;;;;;;3.40;3.15;;;;;;;;;;5074745;28;20020;-24
2023/08/07 03:08:16;;;;;;;3.40;3.10;;;;;;;;;;5074255;28;20028;-24
2023/08/07 03:10:42;;;;;;;3.40;3.20;;;;;;;;;;5074869;28;20054;-23
2023/08/07 03:13:08;;;;;;;2.90;2.70;;;;;;;;;;5074907;28;20024;-27
2023/08/07 03:15:34;;;;;;;2.92;2.72;;;;;;;;;;5074902;28;20032;-25
2023/08/07 03:18:00;;;;;;;2.60;2.50;;;;;;;;;;5074589;28;20332;-25
2023/08/07 03:20:26;;;;;;;3.78;3.47;;;;;;;;;;5074521;28;20100;-23
2023/08/07 03:22:52;;;;;;;3.05;2.85;;;;;;;;;;5074469;28;20032;-27
2023/08/07 03:25:18;;;;;;;3.25;3.05;;;;;;;;;;5074828;28;20321;-26
2023/08/07 03:27:44;;;;;;;3.42;3.22;;;;;;;;;;5074511;28;20025;-26
2023/08/07 03:30:11;;;;;;;3.30;3.10;;;;;;;;;;5074409;28;20021;-24
2023/08/07 03:32:37;;;;;;;2.85;2.65;;;;;;;;;;5074958;28;20032;-25
2023/08/07 03:35:03;;;;;;;3.78;3.58;;;;;;;;;;5074417;28;20021;-24
2023/08/07 03:37:29;;;;;;;3.35;3.15;;;;;;;;;;5074706;28;20055;-24
2023/08/07 03:39:55;;;;;;;2.92;2.72;;;;;;;;;;5074288;28;20051;-24
2023/08/07 03:42:22;;;;;;;3.20;3.00;;;;;;;;;;5074093;28;20052;-25
2023/08/07 03:44:48;;;;;;;3.03;2.83;;;;;;;;;;5074587;28;20028;-24
2023/08/07 03:47:14;;;;;;;2.90;2.80;;;;;;;;;;5074299;28;20017;-26
2023/08/07 03:49:40;;;;;;;3.45;3.25;;;;;;;;;;5056533;28;20356;-24
2023/08/07 03:52:06;;;;;;;3.22;3.03;;;;;;;;;;5074285;28;20038;-28
2023/08/07 03:54:32;;;;;;;3.10;2.90;;;;;;;;;;5074214;28;20032;-26
2023/08/07 03:56:58;;;;;;;2.95;2.75;;;;;;;;;;5074164;28;20379;-25
2023/08/07 03:59:24;;;;;;;2.40;2.30;;;;;;;;;;5074131;28;20021;-25
2023/08/07 04:01:51;;;;;;;3.25;3.05;;;;;;;;;;5074146;28;20417;-24
2023/08/07 04:04:17;;;;;;;3.28;2.97;;;;;;;;;;5074307;28;20028;-25
2023/08/07 04:06:43;;;;;;;3.30;3.10;;;;;;;;;;5074066;28;20337;-24
2023/08/07 04:09:10;;;;;;;3.35;3.15;;;;;;;;;;5074077;28;20024;-25
2023/08/07 04:11:36;;;;;;;3.15;2.97;;;;;;;;;;5074195;28;20044;-24
2023/08/07 04:14:03;;;;;;;3.50;3.30;;;;;;;;;;5074254;28;20032;-27
2023/08/07 04:16:31;;;;;;;3.78;3.50;;;;;;;;;;5074186;28;20033;-28
2023/08/07 04:18:57;;;;;;;3.20;3.00;;;;;;;;;;5075166;28;20445;-28
2023/08/07 04:21:23;;;;;;;3.20;3.00;;;;;;;;;;5077577;28;20043;-27
2023/08/07 04:23:49;;;;;;;3.33;3.13;;;;;;;;;;5077874;28;20028;-26
2023/08/07 04:26:15;;;;;;;3.03;2.92;;;;;;;;;;5077649;28;20055;-26
2023/08/07 04:28:42;;;;;;;3.28;3.08;;;;;;;;;;5077377;28;20021;-25
2023/08/07 04:31:08;;;;;;;3.40;3.20;;;;;;;;;;5077255;28;20025;-26
2023/08/07 04:33:34;;;;;;;3.45;3.25;;;;;;;;;;5077257;28;20024;-25
2023/08/07 04:36:00;;;;;;;3.50;3.20;;;;;;;;;;5077269;28;20024;-24
2023/08/07 04:38:26;;;;;;;3.25;3.05;;;;;;;;;;5077407;28;20024;-27
2023/08/07 04:40:53;;;;;;;3.78;3.58;;;;;;;;;;5077098;28;20055;-26
2023/08/07 04:43:20;;;;;;;3.03;2.83;;;;;;;;;;5077378;28;20047;-29
2023/08/07 04:45:46;;;;;;;3.30;3.10;;;;;;;;;;5077417;28;20090;-25
2023/08/07 04:48:12;;;;;;;3.03;2.83;;;;;;;;;;5077305;28;20020;-25
2023/08/07 04:50:38;;;;;;;9.70;3.45;;;;;;;;;;5076961;28;20016;-24
2023/08/07 04:53:05;;;;;;;3.47;3.28;;;;;;;;;;5076994;28;20036;-28
2023/08/07 04:55:32;;;;;;;4.80;3.95;;;;;;;;;;5077199;28;20086;-25
2023/08/07 04:57:58;;;;;;;3.40;3.20;;;;;;;;;;5076931;28;20032;-26
2023/08/07 05:00:24;;;;;;;3.85;3.38;;;;;;;;;;5058963;28;20028;-25
2023/08/07 05:02:51;;;;;;;3.85;3.30;;;;;;;;;;5076709;28;20024;-27
2023/08/07 05:05:20;;;;;;;3.60;3.17;;;;;;;;;;5058937;28;20021;-27
2023/08/07 05:07:46;;;;;;;3.42;3.13;;;;;;;;;;5076658;28;20024;-25
2023/08/07 05:10:13;;;;;;;4.30;3.45;;;;;;;;;;5076662;28;20034;-28
2023/08/07 05:12:39;;;;;;;3.65;3.35;;;;;;;;;;5076646;28;20024;-27
2023/08/07 05:15:05;;;;;;;2.80;2.60;;;;;;;;;;5077330;28;20028;-28
2023/08/07 05:17:32;;;;;;;3.75;2.72;;;;;;;;;;5076528;28;20163;-27
2023/08/07 05:19:58;;;;;;;3.35;2.95;;;;;;;;;;5076894;28;20082;-29
2023/08/07 05:22:24;;;;;;;3.58;3.08;;;;;;;;;;5076325;28;20029;-29
2023/08/07 05:24:50;;;;;;;6.20;3.28;;;;;;;;;;5076392;28;20027;-25
2023/08/07 05:27:16;;;;;;;5.38;3.22;;;;;;;;;;5076279;28;20058;-29
2023/08/07 05:29:43;;;;;;;13.98;4.00;;;;;;;;;;5075839;28;20052;-28
2023/08/07 05:32:13;;;;;;;3.75;3.55;;;;;;;;;;5075595;28;20024;-29
2023/08/07 05:34:39;;;;;;;5.57;3.28;;;;;;;;;;5076241;28;20025;-26
2023/08/07 05:37:06;;;;;;;3.50;3.20;;;;;;;;;;5076149;28;20023;-24
2023/08/07 05:39:32;;;;;;;6.75;3.30;;;;;;;;;;5076065;28;20407;-26
2023/08/07 05:41:58;;;;;;;9.02;3.70;;;;;;;;;;5075620;28;20158;-25
2023/08/07 05:44:25;;;;;;;3.95;3.20;;;;;;;;;;5076008;28;20358;-24
2023/08/07 05:46:51;;;;;;;4.38;3.38;;;;;;;;;;5075957;28;20078;-25
2023/08/07 05:49:17;;;;;;;4.35;3.42;;;;;;;;;;5075778;28;20329;-27
2023/08/07 05:51:44;;;;;;;4.13;3.72;;;;;;;;;;5075669;28;20024;-27
2023/08/07 05:54:10;;;;;;;8.50;3.22;;;;;;;;;;5075786;28;20024;-28
2023/08/07 05:56:38;;;;;;;3.50;3.20;;;;;;;;;;5058018;28;20025;-25
2023/08/07 05:59:04;;;;;;;5.82;3.63;;;;;;;;;;5057912;28;20335;-26
2023/08/07 06:04:06;;;;;;;8.00;3.97;;;;;;;;;;5107846;22;20078;-26
2023/08/07 06:06:34;;;;;;;4.57;3.53;;;;;;;;;;5095750;28;20024;-27
2023/08/07 06:09:02;;;;;;;5.30;3.60;;;;;;;;;;5095817;28;20040;-28
2023/08/07 06:11:28;;;;;;;4.03;3.60;;;;;;;;;;5095636;28;20035;-26
2023/08/07 06:13:54;;;;;;;4.28;3.97;;;;;;;;;;5095591;28;20438;-25
2023/08/07 06:16:20;;;;;;;7.88;3.60;;;;;;;;;;5095644;28;20028;-26
2023/08/07 06:18:46;;;;;;;4.18;3.75;;;;;;;;;;5095816;28;20046;-30
2023/08/07 06:21:12;;;;;;;3.40;3.20;;;;;;;;;;5094564;28;20021;-26
2023/08/07 06:23:39;;;;;;;3.40;3.20;;;;;;;;;;5095449;28;20074;-26
2023/08/07 06:26:07;;;;;;;4.60;3.50;;;;;;;;;;5095394;28;20363;-25
2023/08/07 06:28:34;;;;;;;5.13;3.35;;;;;;;;;;5095466;28;20056;-28
2023/08/07 06:31:08;;;;;;;3.80;3.53;;;;;;;;;;5095671;28;20020;-25
2023/08/07 06:33:34;;;;;;;5.22;2.95;;;;;;;;;;5095405;28;20447;-28
2023/08/07 06:36:01;;;;;;;4.03;2.90;;;;;;;;;;5095507;28;20095;-28
2023/08/07 06:38:27;;;;;;;3.95;3.60;;;;;;;;;;5095267;28;20028;-28
2023/08/07 06:40:53;;;;;;;8.75;3.38;;;;;;;;;;5095410;28;20063;-25
2023/08/07 06:43:19;;;;;;;3.65;3.30;;;;;;;;;;5094875;28;20336;-25
2023/08/07 06:45:52;;;;;;;5.10;3.58;;;;;;;;;;5094011;28;20020;-26
2023/08/07 06:48:18;;;;;;;10.75;2.88;;;;;;;;;;5094825;28;20020;-26
2023/08/07 06:50:45;;;;;;;3.40;3.10;;;;;;;;;;5095485;28;20024;-28
2023/08/07 06:53:11;;;;;;;4.20;3.65;;;;;;;;;;5094819;28;20442;-33
2023/08/07 06:55:37;;;;;;;8.15;3.80;;;;;;;;;;5094902;28;20036;-27
2023/08/07 06:58:03;;;;;;;3.72;3.35;;;;;;;;;;5094944;28;20035;-27
2023/08/07 07:00:29;;;;;;;5.60;3.08;;;;;;;;;;5094005;28;20024;-25
2023/08/07 07:02:56;;;;;;;6.82;3.50;;;;;;;;;;5094736;28;20051;-28
2023/08/07 07:05:22;;;;;;;5.40;3.45;;;;;;;;;;5094901;28;20020;-23
2023/08/07 07:07:48;;;;;;;5.68;3.60;;;;;;;;;;5094861;28;20051;-25
2023/08/07 07:10:14;;;;;;;7.80;3.80;;;;;;;;;;5095134;28;20122;-26
2023/08/07 07:12:40;;;;;;;4.22;3.25;;;;;;;;;;5093723;28;20035;-28
2023/08/07 07:15:07;;;;;;;4.63;3.15;;;;;;;;;;5094756;28;20027;-28
2023/08/07 07:17:33;;;;;;;3.97;3.67;;;;;;;;;;5094754;28;20089;-28
2023/08/07 07:19:59;;;;;;;7.20;2.78;;;;;;;;;;5094869;28;20055;-25
2023/08/07 07:22:25;;;;;;;6.63;3.60;;;;;;;;;;5094916;28;20108;-24
2023/08/07 07:24:51;;;;;;;3.92;3.30;;;;;;;;;;5094867;28;20012;-27
2023/08/07 07:27:18;;;;;;;7.80;3.55;;;;;;;;;;5094618;28;20020;-28
2023/08/07 07:29:44;;;;;;;4.03;3.53;;;;;;;;;;5094716;28;20024;-24
2023/08/07 07:32:10;;;;;;;5.40;4.05;;;;;;;;;;5094322;28;20028;-28
2023/08/07 07:34:36;;;;;;;4.15;3.75;;;;;;;;;;5093408;28;20028;-26
2023/08/07 07:37:02;;;;;;;9.68;3.47;;;;;;;;;;5094314;28;20028;-25
2023/08/07 07:39:28;;;;;;;4.13;3.83;;;;;;;;;;5093470;28;20071;-23
2023/08/07 07:41:55;;;;;;;5.10;3.47;;;;;;;;;;5094484;28;20397;-26
2023/08/07 07:44:21;;;;;;;8.43;3.65;;;;;;;;;;5094360;28;20461;-28
2023/08/07 07:46:47;;;;;;;5.30;4.18;;;;;;;;;;5094682;28;20024;-28
2023/08/07 07:49:13;;;;;;;8.13;3.45;;;;;;;;;;5095041;28;20052;-28
2023/08/07 07:51:40;;;;;;;4.53;3.22;;;;;;;;;;5094874;28;20031;-27
2023/08/07 07:54:06;;;;;;;3.40;3.17;;;;;;;;;;5096106;28;20028;-28
2023/08/07 07:56:32;;;;;;;5.93;3.80;;;;;;;;;;5098482;28;20409;-28
2023/08/07 07:58:59;;;;;;;5.63;3.80;;;;;;;;;;5098587;28;20023;-25
2023/08/07 08:01:25;;;;;;;3.75;3.42;;;;;;;;;;5098725;28;20024;-26
2023/08/07 08:03:51;;;;;;;6.85;3.72;;;;;;;;;;5097056;28;20466;-26
2023/08/07 08:06:18;;;;;;;6.72;3.30;;;;;;;;;;5098143;28;20081;-27
2023/08/07 08:08:44;;;;;;;6.60;3.65;;;;;;;;;;5098061;28;20483;-25
2023/08/07 08:11:10;;;;;;;10.68;3.60;;;;;;;;;;5098444;28;20083;-25
2023/08/07 08:13:38;;;;;;;8.88;5.38;;;;;;;;;;5098059;28;20024;-24
2023/08/07 08:16:05;;;;;;;3.60;3.28;;;;;;;;;;5098835;28;20040;-28
2023/08/07 08:18:31;;;;;;;4.13;3.15;;;;;;;;;;5098098;28;20020;-25
2023/08/07 08:20:57;;;;;;;3.90;3.58;;;;;;;;;;5098764;28;20032;-28
2023/08/07 08:23:23;;;;;;;3.53;3.22;;;;;;;;;;5098049;28;20123;-25
2023/08/07 08:25:50;;;;;;;3.90;3.53;;;;;;;;;;5097096;28;20052;-27
2023/08/07 08:28:18;;;;;;;6.93;3.40;;;;;;;;;;5097799;28;20498;-28
2023/08/07 08:30:44;;;;;;;4.18;3.78;;;;;;;;;;5098047;28;20028;-27
2023/08/07 08:33:12;;;;;;;4.18;3.78;;;;;;;;;;5098051;28;20024;-28
2023/08/07 08:35:39;;;;;;;6.15;4.25;;;;;;;;;;5098139;28;20565;-27
2023/08/07 08:38:05;;;;;;;4.97;3.25;;;;;;;;;;5097666;28;20161;-25
2023/08/07 08:40:31;;;;;;;4.07;3.42;;;;;;;;;;5097910;28;20019;-28
2023/08/07 08:43:00;;;;;;;6.43;3.88;;;;;;;;;;5097506;28;20458;-24
2023/08/07 08:45:27;;;;;;;3.70;3.20;;;;;;;;;;5097019;28;20107;-24
2023/08/07 08:48:01;;;;;;;3.78;3.47;;;;;;;;;;5097520;28;20025;-26
2023/08/07 08:50:27;;;;;;;5.15;3.35;;;;;;;;;;5097493;28;20027;-27
2023/08/07 08:52:54;;;;;;;4.80;3.45;;;;;;;;;;5096402;28;20058;-24
2023/08/07 08:55:21;;;;;;;3.88;3.58;;;;;;;;;;5097310;28;20036;-25
2023/08/07 08:57:47;;;;;;;5.25;4.57;;;;;;;;;;5097588;28;20089;-25
2023/08/07 09:00:19;;;;;;;5.30;3.50;;;;;;;;;;5097428;28;20405;-24
2023/08/07 09:02:45;;;;;;;6.93;3.47;;;;;;;;;;5096826;28;20048;-26
2023/08/07 09:05:12;;;;;;;3.90;3.47;;;;;;;;;;5095998;28;20403;-26
2023/08/07 09:07:38;;;;;;;4.82;3.40;;;;;;;;;;5097306;28;20020;-25
2023/08/07 09:10:04;;;;;;;3.55;3.25;;;;;;;;;;5097295;28;20145;-27
2023/08/07 09:12:33;;;;;;;5.25;3.20;;;;;;;;;;5097156;28;20020;-28
2023/08/07 09:15:00;;;;;;;3.67;2.92;;;;;;;;;;5097233;28;20057;-27
2023/08/07 09:17:29;;;;;;;7.95;3.45;;;;;;;;;;5096901;28;20027;-28
2023/08/07 09:19:55;;;;;;;4.40;3.50;;;;;;;;;;5096858;28;20103;-28
2023/08/07 09:22:22;;;;;;;3.30;3.00;;;;;;;;;;5096919;28;20113;-27
2023/08/07 09:24:49;;;;;;;6.38;3.83;;;;;;;;;;5097079;28;20020;-27
2023/08/07 09:27:16;;;;;;;9.73;3.13;;;;;;;;;;5096712;28;20028;-26
2023/08/07 09:29:44;;;;;;;4.65;3.10;;;;;;;;;;5096738;28;20023;-24
2023/08/07 09:32:12;;;;;;;6.88;3.08;;;;;;;;;;5096531;28;20028;-28
2023/08/07 09:34:42;;;;;;;3.95;3.55;;;;;;;;;;5096885;28;20055;-27
2023/08/07 09:37:09;;;;;;;5.55;3.70;;;;;;;;;;5096389;28;20024;-28
2023/08/07 09:39:38;;;;;;;3.83;3.53;;;;;;;;;;5096644;28;20055;-28
2023/08/07 09:42:04;;;;;;;10.65;4.18;;;;;;;;;;5096600;28;20024;-27
2023/08/07 09:44:37;;;;;;;8.32;3.95;;;;;;;;;;5096213;28;20019;-29
2023/08/07 09:47:13;;;;;;;9.70;4.75;;;;;;;;;;5096400;28;20055;-26
2023/08/07 09:49:39;;;;;;;5.70;3.75;;;;;;;;;;5096654;28;20357;-27
2023/08/07 09:52:07;;;;;;;7.80;3.75;;;;;;;;;;5096481;28;20040;-28
2023/08/07 09:54:33;;;;;;;3.30;2.90;;;;;;;;;;5096395;28;20042;-28
2023/08/07 09:57:00;;;;;;;5.25;3.75;;;;;;;;;;5096384;28;20421;-28
2023/08/07 09:59:27;;;;;;;5.07;3.58;;;;;;;;;;5096249;28;20412;-25
2023/08/07 10:01:54;;;;;;;6.82;3.95;;;;;;;;;;5094946;28;20492;-29
2023/08/07 10:04:21;;;;;;;8.52;4.63;;;;;;;;;;5095881;28;20436;-28
2023/08/07 10:06:47;;;;;;;5.85;4.15;;;;;;;;;;5096285;28;20052;-28
2023/08/07 10:09:13;;;;;;;4.88;3.53;;;;;;;;;;5094891;28;20028;-28
2023/08/07 10:11:40;;;;;;;7.00;3.60;;;;;;;;;;5096035;28;20025;-26
2023/08/07 10:14:06;;;;;;;6.18;4.15;;;;;;;;;;5096284;28;20103;-27
2023/08/07 10:16:33;;;;;;;5.15;4.10;;;;;;;;;;5095703;28;20027;-27
2023/08/07 10:19:00;;;;;;;7.07;4.25;;;;;;;;;;5095704;28;20111;-26
2023/08/07 10:21:27;;;;;;;4.50;3.53;;;;;;;;;;5094699;28;20028;-24
2023/08/07 10:23:54;;;;;;;6.13;3.53;;;;;;;;;;5094562;28;20512;-25
2023/08/07 10:26:21;;;;;;;3.88;3.53;;;;;;;;;;5095726;28;20060;-28
2023/08/07 10:28:47;;;;;;;4.22;3.83;;;;;;;;;;5095573;28;20023;-24
2023/08/07 10:31:14;;;;;;;9.75;4.25;;;;;;;;;;5094543;28;20451;-26
2023/08/07 10:33:41;;;;;;;10.57;4.10;;;;;;;;;;5094415;28;20051;-26
2023/08/07 10:36:10;;;;;;;10.68;4.07;;;;;;;;;;5095329;28;20028;-27
2023/08/07 10:38:37;;;;;;;4.80;3.88;;;;;;;;;;5095643;28;20397;-26
2023/08/07 10:41:06;;;;;;;9.90;4.05;;;;;;;;;;5095329;28;20038;-24
2023/08/07 10:43:37;;;;;;;5.20;3.70;;;;;;;;;;5095187;28;20024;-27
2023/08/07 10:46:05;;;;;;;8.75;4.20;;;;;;;;;;5095196;28;20032;-24
2023/08/07 10:48:38;;;;;;;8.93;4.25;;;;;;;;;;5095123;28;20073;-28
2023/08/07 10:51:04;;;;;;;5.55;4.72;;;;;;;;;;5095177;28;20164;-29
2023/08/07 10:53:35;;;;;;;5.00;4.53;;;;;;;;;;5095429;28;20024;-26
2023/08/07 10:56:06;;;;;;;7.93;4.18;;;;;;;;;;5095236;28;20035;-27
2023/08/07 10:58:33;;;;;;;5.65;3.47;;;;;;;;;;5095397;28;20413;-23
2023/08/07 11:01:23;;;;;;;7.25;3.70;;;;;;;;;;5095003;28;20107;-24
2023/08/07 11:03:59;;;;;;;7.35;4.18;;;;;;;;;;5083547;28;20340;-28
2023/08/07 11:06:26;;;;;;;9.50;3.95;;;;;;;;;;5095285;28;20031;-25
2023/08/07 11:08:52;;;;;;;9.20;4.15;;;;;;;;;;5094966;28;20095;-26
2023/08/07 11:11:19;;;;;;;7.90;4.85;;;;;;;;;;5095176;28;20122;-27
2023/08/07 11:13:45;;;;;;;8.63;4.10;;;;;;;;;;5094911;28;20028;-26
2023/08/07 11:16:12;;;;;;;9.32;4.53;;;;;;;;;;5094225;28;20388;-26
2023/08/07 11:18:41;;;;;;;9.77;4.38;;;;;;;;;;5094784;28;20455;-25
2023/08/07 11:21:07;;;;;;;8.00;5.28;;;;;;;;;;5094701;28;20028;-27
2023/08/07 11:23:35;;;;;;;8.40;4.20;;;;;;;;;;5094588;28;20032;-28
2023/08/07 11:26:02;;;;;;;5.47;3.78;;;;;;;;;;5094712;28;20470;-25
2023/08/07 11:28:29;;;;;;;7.00;3.70;;;;;;;;;;5094221;28;20020;-28
2023/08/07 11:30:56;;;;;;;8.68;4.20;;;;;;;;;;5094593;28;20032;-27
2023/08/07 11:33:24;;;;;;;6.80;4.05;;;;;;;;;;5094577;28;20035;-34
2023/08/07 11:35:50;;;;;;;7.80;4.18;;;;;;;;;;5094654;28;20035;-27
2023/08/07 11:38:33;;;;;;;9.57;3.80;;;;;;;;;;5094556;28;20021;-28
2023/08/07 11:40:59;;;;;;;5.25;3.55;;;;;;;;;;5094983;28;20450;-25
2023/08/07 11:43:27;;;;;;;12.05;3.47;;;;;;;;;;5094544;28;20028;-28
2023/08/07 11:45:54;;;;;;;11.55;5.05;;;;;;;;;;5094610;28;20024;-26
2023/08/07 11:48:25;;;;;;;15.73;6.05;;;;;;;;;;5094666;28;20020;-23
2023/08/07 11:50:51;;;;;;;4.32;3.50;;;;;;;;;;5094766;28;20025;-27
2023/08/07 11:53:17;;;;;;;10.15;4.20;;;;;;;;;;5094516;28;20051;-27
2023/08/07 11:55:56;;;;;;;7.72;4.53;;;;;;;;;;5093488;28;20135;-25
2023/08/07 11:58:22;;;;;;;14.95;4.45;;;;;;;;;;5094589;28;20020;-28
2023/08/07 12:00:49;;;;;;;4.93;4.03;;;;;;;;;;5094343;28;20032;-24
2023/08/07 12:03:44;;;;;;;10.27;4.60;;;;;;;;;;5094172;28;20116;-26
2023/08/07 12:06:10;;;;;;;13.30;4.63;;;;;;;;;;5081227;28;20028;-27
2023/08/07 12:08:40;;;;;;;10.18;3.65;;;;;;;;;;5094924;28;20031;-26
2023/08/07 12:11:11;;;;;;;8.23;3.70;;;;;;;;;;5094859;28;20474;-29
2023/08/07 12:13:37;;;;;;;;;;;;;;;;;;5095107;28;20039;-28
2023/08/07 12:16:04;;;;;;;4.85;3.67;;;;;;;;;;5094621;28;19908;-27
2023/08/07 12:18:30;;;;;;;7.03;3.65;;;;;;;;;;5094750;28;20039;-27
2023/08/07 12:21:00;;;;;;;7.85;4.13;;;;;;;;;;5094965;28;20024;-25
2023/08/07 12:23:26;;;;;;;6.00;4.38;;;;;;;;;;5094322;28;20035;-27
2023/08/07 12:25:53;;;;;;;12.32;3.97;;;;;;;;;;5094195;28;20024;-28
2023/08/07 12:28:19;;;;;;;5.35;3.40;;;;;;;;;;5094408;28;20458;-27
2023/08/07 12:30:49;;;;;;;14.32;5.05;;;;;;;;;;5094047;28;20020;-27
2023/08/07 12:33:15;;;;;;;6.95;4.22;;;;;;;;;;5093963;28;20032;-27
2023/08/07 12:35:41;;;;;;;5.70;3.80;;;;;;;;;;5094786;28;20036;-26
2023/08/07 12:38:09;;;;;;;9.32;3.95;;;;;;;;;;5093943;28;20350;-27
2023/08/07 12:40:38;;;;;;;14.15;3.88;;;;;;;;;;5096529;28;20097;-25
2023/08/07 12:43:05;;;;;;;7.95;4.18;;;;;;;;;;5097401;28;20339;-26
2023/08/07 12:45:31;;;;;;;8.77;4.43;;;;;;;;;;5097461;28;20081;-27
2023/08/07 12:47:57;;;;;;;5.45;4.05;;;;;;;;;;5097495;28;20041;-24
2023/08/07 12:50:23;;;;;;;11.98;4.63;;;;;;;;;;5097485;28;20048;-24
2023/08/07 12:52:49;;;;;;;10.23;4.68;;;;;;;;;;5096358;28;20462;-26
2023/08/07 12:55:16;;;;;;;4.47;3.83;;;;;;;;;;5097199;28;20028;-27
2023/08/07 12:57:42;;;;;;;12.98;3.92;;;;;;;;;;5097285;28;20028;-29
2023/08/07 13:00:12;;;;;;;15.27;3.80;;;;;;;;;;5097162;28;20493;-27
2023/08/07 13:02:38;;;;;;;8.35;4.50;;;;;;;;;;5096861;28;20040;-26
2023/08/07 13:05:05;;;;;;;10.32;4.90;;;;;;;;;;5096123;28;20024;-23
2023/08/07 13:07:31;;;;;;;8.18;4.07;;;;;;;;;;5097177;28;20028;-28
2023/08/07 13:09:57;;;;;;;7.30;4.70;;;;;;;;;;5096960;28;20105;-28
2023/08/07 13:12:23;;;;;;;5.90;3.88;;;;;;;;;;5096538;28;20028;-28
2023/08/07 13:14:49;;;;;;;7.22;4.10;;;;;;;;;;5095681;28;20500;-26
2023/08/07 13:17:15;;;;;;;6.43;4.68;;;;;;;;;;5096776;28;20024;-28
2023/08/07 13:19:42;;;;;;;11.57;4.60;;;;;;;;;;5097067;28;20089;-27
2023/08/07 13:22:08;;;;;;;7.07;3.67;;;;;;;;;;5096971;28;20028;-25
2023/08/07 13:24:34;;;;;;;15.25;4.65;;;;;;;;;;5096560;28;20051;-26
2023/08/07 13:27:00;;;;;;;7.38;3.42;;;;;;;;;;5096463;28;20024;-27
2023/08/07 13:29:29;;;;;;;12.32;4.47;;;;;;;;;;5096470;28;20039;-26
2023/08/07 13:31:55;;;;;;;6.10;4.35;;;;;;;;;;5096432;28;20012;-24
2023/08/07 13:34:22;;;;;;;6.07;4.32;;;;;;;;;;5096313;28;20047;-24
2023/08/07 13:36:48;;;;;;;11.93;3.55;;;;;;;;;;5096688;28;20024;-26
2023/08/07 13:39:14;;;;;;;12.23;4.22;;;;;;;;;;5095477;28;20016;-28
2023/08/07 13:41:40;;;;;;;5.35;2.97;;;;;;;;;;5096411;28;20020;-26
2023/08/07 13:44:06;;;;;;;8.13;3.60;;;;;;;;;;5096226;28;20020;-28
2023/08/07 13:46:32;;;;;;;10.82;3.53;;;;;;;;;;5096322;28;20031;-28
2023/08/07 13:48:58;;;;;;;7.43;3.45;;;;;;;;;;5095344;28;20051;-25
2023/08/07 13:51:24;;;;;;;14.10;4.22;;;;;;;;;;5095326;28;20024;-26
2023/08/07 13:53:54;;;;;;;6.40;4.00;;;;;;;;;;5096127;28;20027;-26
2023/08/07 13:56:20;;;;;;;6.38;3.47;;;;;;;;;;5096201;28;20028;-26
2023/08/07 13:58:47;;;;;;;6.75;3.78;;;;;;;;;;5096113;28;20020;-26
2023/08/07 14:01:13;;;;;;;9.90;4.20;;;;;;;;;;5096026;28;20035;-25
2023/08/07 14:03:39;;;;;;;7.75;3.38;;;;;;;;;;5096083;28;20076;-27
2023/08/07 14:06:06;;;;;;;5.75;3.83;;;;;;;;;;5095585;28;20063;-31
2023/08/07 14:08:34;;;;;;;8.63;4.38;;;;;;;;;;5095831;28;20020;-27
2023/08/07 14:11:00;;;;;;;6.40;3.63;;;;;;;;;;5095850;28;20489;-24
2023/08/07 14:13:26;;;;;;;10.30;4.10;;;;;;;;;;5095354;28;20443;-28
2023/08/07 14:15:52;;;;;;;10.73;3.97;;;;;;;;;;5096186;28;20379;-25
2023/08/07 14:18:19;;;;;;;7.95;3.83;;;;;;;;;;5095388;28;20071;-26
2023/08/07 14:20:45;;;;;;;15.38;4.75;;;;;;;;;;5095280;28;20051;-24
2023/08/07 14:23:11;;;;;;;11.50;4.80;;;;;;;;;;5095703;28;20019;-27
2023/08/07 14:25:37;;;;;;;10.80;3.78;;;;;;;;;;5094477;28;20051;-28
2023/08/07 14:28:07;;;;;;;4.53;4.00;;;;;;;;;;5096090;28;20099;-27
2023/08/07 14:30:33;;;;;;;9.27;3.72;;;;;;;;;;5095548;28;20045;-27
2023/08/07 14:32:59;;;;;;;7.28;3.92;;;;;;;;;;5095315;28;20106;-28
2023/08/07 14:35:25;;;;;;;8.55;4.35;;;;;;;;;;5095550;28;20454;-27
2023/08/07 14:37:51;;;;;;;6.85;3.70;;;;;;;;;;5095623;28;20028;-27
2023/08/07 14:40:17;;;;;;;13.15;6.18;;;;;;;;;;5095124;28;20031;-26
2023/08/07 14:42:43;;;;;;;8.88;3.60;;;;;;;;;;5095287;28;20362;-24
2023/08/07 14:45:10;;;;;;;4.75;3.90;;;;;;;;;;5095423;28;20031;-29